createdAt,value
2022-07-26T00:00:17.967Z,13.75
2022-07-26T00:02:47.944Z,14.05
2022-07-26T00:05:16.911Z,13.25
2022-07-26T00:07:45.222Z,14.07
2022-07-26T00:10:13.732Z,13.35
2022-07-26T00:12:41.725Z,13.98
2022-07-26T00:15:11.042Z,12.90
2022-07-26T00:17:39.858Z,14.27
2022-07-26T00:20:07.349Z,13.00
2022-07-26T00:22:34.810Z,13.25
2022-07-26T00:25:04.542Z,12.95
2022-07-26T00:27:31.831Z,15.63
2022-07-26T00:29:58.913Z,13.13
2022-07-26T00:32:26.118Z,13.68
2022-07-26T00:34:54.145Z,14.20
2022-07-26T00:37:21.319Z,14.35
2022-07-26T00:39:49.439Z,13.27
2022-07-26T00:42:16.867Z,14.25
2022-07-26T00:44:45.640Z,14.27
2022-07-26T00:47:13.734Z,14.48
2022-07-26T00:49:41.560Z,14.45
2022-07-26T00:52:10.468Z,14.82
2022-07-26T00:54:38.859Z,14.63
2022-07-26T00:57:06.754Z,16.65
2022-07-26T00:59:33.944Z,15.45
2022-07-26T01:02:02.478Z,15.55
2022-07-26T01:04:29.835Z,15.48
2022-07-26T01:06:57.285Z,19.50
2022-07-26T01:09:24.987Z,16.98
2022-07-26T01:11:52.140Z,17.08
2022-07-26T01:14:21.502Z,17.77
2022-07-26T01:16:49.005Z,17.88
2022-07-26T01:19:17.073Z,17.17
2022-07-26T01:21:44.354Z,16.98
2022-07-26T01:24:11.788Z,16.40
2022-07-26T01:26:39.079Z,18.02
2022-07-26T01:29:06.378Z,16.50
2022-07-26T01:31:33.742Z,16.60
2022-07-26T01:34:01.039Z,17.70
2022-07-26T01:36:28.347Z,17.00
2022-07-26T01:38:55.608Z,15.55
2022-07-26T01:41:37.607Z,16.25
2022-07-26T01:44:07.736Z,16.95
2022-07-26T01:46:36.180Z,17.77
2022-07-26T01:49:04.076Z,16.90
2022-07-26T01:51:31.314Z,17.58
2022-07-26T01:53:58.431Z,15.10
2022-07-26T01:56:25.666Z,15.73
2022-07-26T01:58:52.909Z,16.42
2022-07-26T02:01:39.574Z,16.15
2022-07-26T02:04:09.013Z,16.67
2022-07-26T02:06:37.342Z,16.75
2022-07-26T02:09:07.482Z,17.67
2022-07-26T02:11:35.022Z,16.48
2022-07-26T02:14:03.392Z,16.52
2022-07-26T02:16:31.243Z,15.38
2022-07-26T02:18:58.309Z,14.98
2022-07-26T02:21:25.566Z,16.70
2022-07-26T02:23:52.912Z,16.08
2022-07-26T02:26:19.977Z,15.15
2022-07-26T02:28:47.197Z,15.57
2022-07-26T02:31:15.590Z,15.48
2022-07-26T02:33:43.123Z,16.52
2022-07-26T02:36:10.328Z,16.13
2022-07-26T02:38:37.547Z,15.40
2022-07-26T02:41:06.414Z,16.13
2022-07-26T02:43:33.606Z,15.77
2022-07-26T02:46:01.432Z,16.33
2022-07-26T02:48:31.259Z,16.30
2022-07-26T02:50:58.608Z,14.65
2022-07-26T02:53:25.671Z,13.60
2022-07-26T02:55:52.813Z,13.93
2022-07-26T02:58:21.895Z,11.02
2022-07-26T03:00:48.970Z,10.32
2022-07-26T03:03:15.999Z,8.50
2022-07-26T03:05:43.268Z,8.90
2022-07-26T03:08:10.534Z,9.40
2022-07-26T03:10:37.680Z,8.68
2022-07-26T03:13:04.899Z,7.03
2022-07-26T03:15:32.081Z,7.47
2022-07-26T03:17:59.432Z,6.82
2022-07-26T03:20:26.719Z,6.07
2022-07-26T03:22:53.804Z,6.75
2022-07-26T03:25:21.114Z,7.03
2022-07-26T03:27:48.155Z,6.20
2022-07-26T03:30:15.449Z,5.65
2022-07-26T03:32:42.697Z,6.07
2022-07-26T03:35:09.945Z,6.43
2022-07-26T03:37:46.135Z,5.57
2022-07-26T03:40:16.577Z,8.82
2022-07-26T03:42:45.346Z,5.40
2022-07-26T03:45:14.908Z,5.68
2022-07-26T03:47:42.434Z,5.55
2022-07-26T03:50:11.138Z,6.03
2022-07-26T03:52:38.494Z,6.20
2022-07-26T03:55:27.070Z,5.72
2022-07-26T03:57:54.189Z,5.88
2022-07-26T04:00:21.480Z,5.32
2022-07-26T04:02:48.644Z,5.88
2022-07-26T04:05:15.997Z,5.95
2022-07-26T04:07:53.080Z,5.90
2022-07-26T04:10:22.271Z,5.70
2022-07-26T04:12:50.487Z,5.97
2022-07-26T04:15:19.290Z,6.45
2022-07-26T04:17:48.567Z,5.78
2022-07-26T04:20:16.100Z,8.27
2022-07-26T04:22:43.472Z,6.20
2022-07-26T04:25:10.957Z,7.15
2022-07-26T04:27:38.316Z,6.22
2022-07-26T04:30:11.077Z,5.90
2022-07-26T04:32:41.893Z,5.82
2022-07-26T04:35:09.764Z,5.88
2022-07-26T04:37:41.406Z,6.40
2022-07-26T04:40:09.940Z,6.68
2022-07-26T04:42:39.239Z,5.85
2022-07-26T04:45:08.606Z,6.38
2022-07-26T04:47:36.573Z,6.47
2022-07-26T04:50:04.794Z,8.02
2022-07-26T04:52:32.661Z,7.60
2022-07-26T04:55:01.038Z,7.43
2022-07-26T04:57:28.195Z,12.23
2022-07-26T05:00:16.650Z,11.80
2022-07-26T05:02:42.756Z,11.73
2022-07-26T05:05:10.169Z,6.75
2022-07-26T05:07:47.211Z,7.20
2022-07-26T05:10:16.333Z,6.78
2022-07-26T05:12:43.694Z,6.22
2022-07-26T05:15:14.153Z,5.32
2022-07-26T05:17:43.108Z,5.10
2022-07-26T05:20:12.496Z,6.10
2022-07-26T05:22:39.615Z,5.20
2022-07-26T05:25:07.409Z,5.60
2022-07-26T05:27:34.793Z,9.50
2022-07-26T05:30:03.433Z,5.15
2022-07-26T05:32:30.616Z,5.90
2022-07-26T05:34:58.281Z,10.00
2022-07-26T05:37:25.411Z,6.13
2022-07-26T05:39:53.230Z,5.82
2022-07-26T05:42:20.435Z,5.90
2022-07-26T05:44:47.758Z,7.60
2022-07-26T05:47:15.419Z,5.57
2022-07-26T05:49:43.270Z,5.07
2022-07-26T05:52:10.418Z,6.05
2022-07-26T05:54:37.617Z,5.15
2022-07-26T05:57:05.135Z,6.30
2022-07-26T05:59:32.705Z,7.03
2022-07-26T06:02:00.237Z,5.40
2022-07-26T06:04:27.638Z,6.00
2022-07-26T06:06:55.573Z,7.32
2022-07-26T06:09:25.011Z,6.55
2022-07-26T06:11:52.282Z,5.38
2022-07-26T06:14:20.555Z,5.60
2022-07-26T06:16:48.433Z,5.22
2022-07-26T06:19:16.019Z,5.32
2022-07-26T06:21:43.196Z,6.10
2022-07-26T06:24:11.171Z,4.93
2022-07-26T06:26:38.981Z,5.22
2022-07-26T06:29:06.155Z,5.85
2022-07-26T06:31:33.858Z,6.63
2022-07-26T06:34:01.041Z,5.50
2022-07-26T06:36:30.867Z,4.90
2022-07-26T06:38:59.035Z,4.70
2022-07-26T06:41:26.303Z,5.07
2022-07-26T06:43:53.499Z,6.55
2022-07-26T06:46:21.444Z,4.40
2022-07-26T06:48:53.133Z,5.95
2022-07-26T06:51:24.375Z,4.35
2022-07-26T06:53:51.903Z,3.90
2022-07-26T06:56:19.814Z,4.45
2022-07-26T06:58:47.451Z,5.10
2022-07-26T07:01:51.434Z,3.65
2022-07-26T07:04:02.115Z,6.15
2022-07-26T07:06:29.302Z,5.25
2022-07-26T07:08:56.456Z,6.10
2022-07-26T07:11:23.857Z,4.70
2022-07-26T07:13:51.108Z,7.85
2022-07-26T07:16:18.258Z,5.05
2022-07-26T07:18:45.529Z,6.00
2022-07-26T07:21:12.844Z,5.30
2022-07-26T07:23:40.030Z,7.13
2022-07-26T07:26:07.183Z,5.80
2022-07-26T07:28:38.526Z,4.20
2022-07-26T07:31:06.302Z,7.47
2022-07-26T07:33:36.672Z,6.15
2022-07-26T07:36:19.803Z,8.05
2022-07-26T07:38:47.289Z,6.80
2022-07-26T07:41:14.620Z,4.85
2022-07-26T07:43:41.766Z,5.80
2022-07-26T07:46:08.954Z,4.88
2022-07-26T07:48:41.126Z,7.70
2022-07-26T07:51:12.166Z,10.43
2022-07-26T07:53:39.467Z,6.88
2022-07-26T07:56:06.921Z,6.88
2022-07-26T07:58:34.791Z,7.57
2022-07-26T08:01:02.175Z,5.05
2022-07-26T08:03:38.642Z,6.15
2022-07-26T08:06:08.611Z,8.82
2022-07-26T08:08:36.956Z,5.88
2022-07-26T08:11:07.947Z,6.20
2022-07-26T08:13:35.504Z,5.60
2022-07-26T08:16:05.080Z,5.20
2022-07-26T08:18:42.049Z,5.05
2022-07-26T08:21:23.097Z,4.95
2022-07-26T08:23:51.094Z,5.18
2022-07-26T08:26:18.235Z,4.65
2022-07-26T08:28:47.895Z,4.20
2022-07-26T08:31:16.476Z,6.35
2022-07-26T08:33:46.518Z,4.22
2022-07-26T08:36:15.718Z,5.22
2022-07-26T08:38:43.602Z,5.38
2022-07-26T08:41:10.844Z,4.10
2022-07-26T08:43:51.988Z,5.90
2022-07-26T08:46:26.917Z,5.55
2022-07-26T08:48:57.012Z,6.18
2022-07-26T08:51:25.737Z,3.95
2022-07-26T08:54:04.895Z,7.40
2022-07-26T08:56:40.888Z,5.95
2022-07-26T08:59:21.338Z,4.43
2022-07-26T09:01:59.809Z,6.10
2022-07-26T09:04:32.686Z,5.63
2022-07-26T09:07:03.060Z,3.10
2022-07-26T09:09:34.790Z,6.55
2022-07-26T09:12:15.368Z,4.93
2022-07-26T09:14:46.952Z,5.63
2022-07-26T09:17:17.673Z,2.85
2022-07-26T09:19:47.692Z,3.42
2022-07-26T09:22:17.090Z,2.00
2022-07-26T09:24:47.977Z,2.28
2022-07-26T09:27:18.182Z,1.83
2022-07-26T09:29:50.340Z,2.53
2022-07-26T09:32:21.525Z,2.45
2022-07-26T09:34:58.352Z,3.45
2022-07-26T09:37:35.524Z,1.92
2022-07-26T09:40:07.577Z,3.08
2022-07-26T09:42:36.552Z,2.60
2022-07-26T09:45:17.497Z,2.80
2022-07-26T09:47:46.508Z,3.35
2022-07-26T09:50:15.665Z,4.53
2022-07-26T09:53:07.597Z,4.55
2022-07-26T09:55:44.652Z,4.97
2022-07-26T09:58:15.307Z,4.93
2022-07-26T10:00:43.389Z,6.32
2022-07-26T10:03:11.092Z,8.23
2022-07-26T10:05:38.534Z,6.35
2022-07-26T10:08:06.488Z,6.88
2022-07-26T10:10:40.090Z,8.45
2022-07-26T10:13:08.720Z,9.10
2022-07-26T10:15:38.290Z,9.82
2022-07-26T10:18:08.594Z,7.20
2022-07-26T10:20:42.907Z,8.27
2022-07-26T10:23:39.111Z,7.35
2022-07-26T10:26:09.817Z,6.05
2022-07-26T10:28:38.637Z,6.68
2022-07-26T10:31:24.617Z,11.75
2022-07-26T10:33:54.132Z,9.10
2022-07-26T10:36:27.877Z,6.63
2022-07-26T10:39:04.986Z,5.50
2022-07-26T10:41:35.840Z,7.07
2022-07-26T10:44:13.389Z,5.38
2022-07-26T10:46:57.897Z,7.18
2022-07-26T10:49:36.453Z,5.63
2022-07-26T10:52:10.778Z,5.18
2022-07-26T10:54:59.096Z,4.78
2022-07-26T10:57:29.517Z,8.18
2022-07-26T10:59:58.129Z,5.55
2022-07-26T11:02:29.038Z,6.28
2022-07-26T11:05:04.735Z,5.07
2022-07-26T11:07:32.367Z,8.88
2022-07-26T11:10:01.296Z,5.53
2022-07-26T11:12:28.467Z,3.58
2022-07-26T11:14:56.346Z,5.32
2022-07-26T11:17:24.882Z,3.83
2022-07-26T11:19:52.344Z,6.57
2022-07-26T11:22:20.005Z,4.38
2022-07-26T11:24:47.593Z,3.78
2022-07-26T11:27:14.910Z,4.78
2022-07-26T11:29:42.225Z,3.55
2022-07-26T11:32:22.530Z,4.80
2022-07-26T11:35:06.875Z,4.30
2022-07-26T11:37:34.299Z,3.43
2022-07-26T11:40:01.357Z,4.00
2022-07-26T11:42:28.622Z,3.53
2022-07-26T11:44:55.944Z,2.90
2022-07-26T11:47:26.307Z,2.55
2022-07-26T11:50:16.406Z,4.07
2022-07-26T11:52:42.254Z,3.30
2022-07-26T11:55:09.945Z,3.08
2022-07-26T11:57:37.403Z,4.32
2022-07-26T12:00:05.783Z,3.78
2022-07-26T12:02:40.500Z,4.82
2022-07-26T12:05:19.364Z,4.85
2022-07-26T12:08:05.482Z,4.22
2022-07-26T12:10:33.270Z,4.68
2022-07-26T12:13:16.416Z,3.22
2022-07-26T12:15:45.534Z,3.03
2022-07-26T12:18:23.328Z,4.20
2022-07-26T12:21:09.107Z,5.28
2022-07-26T12:23:46.365Z,5.47
2022-07-26T12:26:31.054Z,6.85
2022-07-26T12:28:59.902Z,4.95
2022-07-26T12:31:31.205Z,3.80
2022-07-26T12:33:58.973Z,4.60
2022-07-26T12:36:28.793Z,3.45
2022-07-26T12:38:59.509Z,4.20
2022-07-26T12:41:36.260Z,3.15
2022-07-26T12:44:05.860Z,5.75
2022-07-26T12:46:34.862Z,4.00
2022-07-26T12:49:03.087Z,5.10
2022-07-26T12:51:31.307Z,5.90
2022-07-26T12:53:58.390Z,3.97
2022-07-26T12:56:25.528Z,4.65
2022-07-26T12:58:54.235Z,3.65
2022-07-26T13:01:21.711Z,5.97
2022-07-26T13:03:49.149Z,4.53
2022-07-26T13:06:16.233Z,6.60
2022-07-26T13:08:43.338Z,3.10
2022-07-26T13:11:10.746Z,6.55
2022-07-26T13:13:37.857Z,4.30
2022-07-26T13:16:11.182Z,4.88
2022-07-26T13:18:39.233Z,4.32
2022-07-26T13:21:06.594Z,3.83
2022-07-26T13:23:35.104Z,4.65
2022-07-26T13:26:03.712Z,3.72
2022-07-26T13:28:31.378Z,3.20
2022-07-26T13:30:58.593Z,2.80
2022-07-26T13:33:25.915Z,4.60
2022-07-26T13:35:53.018Z,6.47
2022-07-26T13:38:20.422Z,4.45
2022-07-26T13:40:47.559Z,3.97
2022-07-26T13:43:15.108Z,3.00
2022-07-26T13:45:42.579Z,2.92
2022-07-26T13:48:09.869Z,3.95
2022-07-26T13:50:37.048Z,5.78
2022-07-26T13:53:04.360Z,3.55
2022-07-26T13:55:31.467Z,4.32
2022-07-26T13:57:59.199Z,6.10
2022-07-26T14:00:28.797Z,3.90
2022-07-26T14:02:58.428Z,2.95
2022-07-26T14:05:27.861Z,4.15
2022-07-26T14:07:55.527Z,2.72
2022-07-26T14:10:23.966Z,5.00
2022-07-26T14:12:51.780Z,5.88
2022-07-26T14:15:22.665Z,4.40
2022-07-26T14:17:51.125Z,2.85
2022-07-26T14:20:19.148Z,3.35
2022-07-26T14:22:47.228Z,3.00
2022-07-26T14:25:14.980Z,3.67
2022-07-26T14:27:42.039Z,3.25
2022-07-26T14:30:09.651Z,3.53
2022-07-26T14:32:37.317Z,5.53
2022-07-26T14:35:05.562Z,4.55
2022-07-26T14:37:44.233Z,4.70
2022-07-26T14:40:15.412Z,4.85
2022-07-26T14:42:42.667Z,5.18
2022-07-26T14:45:10.239Z,3.67
2022-07-26T14:47:37.913Z,5.07
2022-07-26T14:50:07.676Z,5.18
2022-07-26T14:52:45.984Z,4.68
2022-07-26T14:55:15.126Z,3.67
2022-07-26T14:57:42.728Z,4.38
2022-07-26T15:00:13.683Z,3.58
2022-07-26T15:02:42.633Z,4.30
2022-07-26T15:05:11.597Z,5.03
2022-07-26T15:07:40.317Z,5.10
2022-07-26T15:10:09.908Z,3.60
2022-07-26T15:12:37.763Z,4.95
2022-07-26T15:15:06.191Z,4.05
2022-07-26T15:17:33.580Z,3.45
2022-07-26T15:20:01.405Z,4.90
2022-07-26T15:22:28.677Z,3.72
2022-07-26T15:24:55.734Z,3.80
2022-07-26T15:27:22.868Z,4.38
2022-07-26T15:29:50.962Z,4.35
2022-07-26T15:32:19.866Z,3.22
2022-07-26T15:34:47.188Z,4.10
2022-07-26T15:37:15.606Z,3.33
2022-07-26T15:39:42.786Z,3.67
2022-07-26T15:42:10.112Z,3.95
2022-07-26T15:44:38.910Z,3.55
2022-07-26T15:47:06.390Z,3.85
2022-07-26T15:49:34.246Z,3.55
2022-07-26T15:54:37.389Z,3.92
2022-07-26T15:57:04.822Z,4.25
2022-07-26T15:59:33.317Z,4.65
2022-07-26T16:02:00.877Z,5.68
2022-07-26T16:04:29.483Z,6.20
2022-07-26T16:06:57.881Z,4.53
2022-07-26T16:09:25.978Z,3.50
2022-07-26T16:11:54.959Z,3.10
2022-07-26T16:14:23.053Z,3.70
2022-07-26T16:16:51.390Z,3.25
2022-07-26T16:19:19.359Z,4.13
2022-07-26T16:21:47.567Z,4.47
2022-07-26T16:24:16.066Z,8.88
2022-07-26T16:26:44.085Z,3.50
2022-07-26T16:29:13.030Z,5.85
2022-07-26T16:31:42.855Z,4.47
2022-07-26T16:34:11.413Z,4.85
2022-07-26T16:36:39.488Z,10.32
2022-07-26T16:39:07.429Z,3.20
2022-07-26T16:41:36.342Z,4.50
2022-07-26T16:44:06.045Z,6.60
2022-07-26T16:46:34.037Z,5.95
2022-07-26T16:49:02.299Z,2.88
2022-07-26T16:51:32.394Z,4.38
2022-07-26T16:54:00.465Z,5.35
2022-07-26T16:56:27.994Z,4.13
2022-07-26T16:58:55.713Z,3.80
2022-07-26T17:01:24.100Z,3.08
2022-07-26T17:03:52.935Z,7.70
2022-07-26T17:06:20.481Z,4.43
2022-07-26T17:08:48.509Z,3.20
2022-07-26T17:11:16.201Z,4.22
2022-07-26T17:13:44.204Z,4.78
2022-07-26T17:16:12.985Z,7.13
2022-07-26T17:18:40.888Z,3.83
2022-07-26T17:21:08.666Z,6.32
2022-07-26T17:23:37.042Z,3.40
2022-07-26T17:26:05.459Z,5.03
2022-07-26T17:28:33.141Z,5.25
2022-07-26T17:31:01.883Z,5.10
2022-07-26T17:33:30.079Z,3.95
2022-07-26T17:35:58.742Z,4.45
2022-07-26T17:38:31.657Z,7.13
2022-07-26T17:40:59.191Z,6.22
2022-07-26T17:43:36.591Z,3.30
2022-07-26T17:46:05.390Z,4.40
2022-07-26T17:48:33.021Z,12.52
2022-07-26T17:51:01.483Z,4.13
2022-07-26T17:53:34.178Z,4.32
2022-07-26T17:56:03.287Z,8.38
2022-07-26T17:58:31.053Z,8.98
2022-07-26T18:00:58.556Z,5.50
2022-07-26T18:03:26.531Z,6.72
2022-07-26T18:05:54.716Z,7.70
2022-07-26T18:08:27.740Z,3.70
2022-07-26T18:10:57.359Z,6.05
2022-07-26T18:13:26.068Z,4.90
2022-07-26T18:15:54.449Z,19.98
2022-07-26T18:18:22.038Z,10.48
2022-07-26T18:20:50.327Z,6.25
2022-07-26T18:23:18.126Z,4.93
2022-07-26T18:25:45.876Z,5.40
2022-07-26T18:28:13.749Z,7.43
2022-07-26T18:30:41.242Z,3.83
2022-07-26T18:33:11.167Z,3.92
2022-07-26T18:35:39.074Z,5.78
2022-07-26T18:38:07.399Z,4.85
2022-07-26T18:40:35.137Z,6.10
2022-07-26T18:43:02.929Z,4.22
2022-07-26T18:45:30.587Z,5.65
2022-07-26T18:47:58.172Z,4.00
2022-07-26T18:50:30.870Z,6.85
2022-07-26T18:52:59.974Z,5.90
2022-07-26T18:55:28.026Z,4.95
2022-07-26T18:57:55.777Z,4.30
2022-07-26T19:00:25.885Z,4.93
2022-07-26T19:02:54.752Z,3.55
2022-07-26T19:05:23.352Z,4.57
2022-07-26T19:07:51.883Z,3.83
2022-07-26T19:10:20.260Z,2.60
2022-07-26T19:12:48.677Z,3.10
2022-07-26T19:15:17.004Z,2.97
2022-07-26T19:17:44.761Z,3.85
2022-07-26T19:20:12.740Z,2.42
2022-07-26T19:22:40.763Z,2.92
2022-07-26T19:25:10.769Z,4.55
2022-07-26T19:27:38.782Z,2.13
2022-07-26T19:30:08.129Z,2.72
2022-07-26T19:32:35.442Z,4.22
2022-07-26T19:35:03.986Z,3.78
2022-07-26T19:37:31.481Z,2.30
2022-07-26T19:40:01.114Z,2.83
2022-07-26T19:42:31.390Z,2.00
2022-07-26T19:44:59.260Z,2.72
2022-07-26T19:47:27.249Z,4.32
2022-07-26T19:49:54.916Z,5.18
2022-07-26T19:52:22.339Z,2.00
2022-07-26T19:54:49.409Z,4.15
2022-07-26T19:57:19.738Z,1.77
2022-07-26T19:59:48.387Z,1.65
2022-07-26T20:02:15.823Z,3.03
2022-07-26T20:04:46.011Z,2.42
2022-07-26T20:07:19.631Z,3.05
2022-07-26T20:09:50.239Z,4.28
2022-07-26T20:12:19.993Z,1.70
2022-07-26T20:14:48.097Z,3.35
2022-07-26T20:17:15.713Z,3.58
2022-07-26T20:19:43.532Z,1.90
2022-07-26T20:22:11.400Z,2.28
2022-07-26T20:24:38.722Z,2.75
2022-07-26T20:27:07.714Z,2.80
2022-07-26T20:29:35.610Z,3.17
2022-07-26T20:32:02.963Z,3.15
2022-07-26T20:34:30.560Z,4.03
2022-07-26T20:36:58.235Z,1.75
2022-07-26T20:39:27.970Z,3.05
2022-07-26T20:41:56.399Z,2.45
2022-07-26T20:44:28.148Z,3.80
2022-07-26T20:46:55.769Z,2.22
2022-07-26T20:49:23.566Z,2.63
2022-07-26T20:51:50.879Z,2.28
2022-07-26T20:54:18.148Z,3.25
2022-07-26T20:56:45.446Z,2.22
2022-07-26T20:59:13.050Z,3.72
2022-07-26T21:01:40.763Z,3.30
2022-07-26T21:04:12.208Z,2.47
2022-07-26T21:06:39.604Z,3.58
2022-07-26T21:09:09.012Z,5.40
2022-07-26T21:11:38.618Z,2.60
2022-07-26T21:14:06.070Z,4.55
2022-07-26T21:16:33.322Z,4.55
2022-07-26T21:19:02.840Z,4.15
2022-07-26T21:21:30.108Z,2.78
2022-07-26T21:23:57.647Z,5.03
2022-07-26T21:26:24.903Z,4.25
2022-07-26T21:28:52.407Z,3.50
2022-07-26T21:31:19.548Z,5.50
2022-07-26T21:33:46.741Z,4.15
2022-07-26T21:36:14.519Z,5.82
2022-07-26T21:38:42.230Z,3.65
2022-07-26T21:41:13.416Z,3.63
2022-07-26T21:43:41.431Z,4.25
2022-07-26T21:46:12.611Z,6.45
2022-07-26T21:48:41.278Z,4.68
2022-07-26T21:51:08.680Z,3.85
2022-07-26T21:53:36.066Z,6.20
2022-07-26T21:56:05.693Z,5.38
2022-07-26T21:58:36.693Z,4.80
2022-07-26T22:01:07.333Z,4.82
2022-07-26T22:03:36.764Z,4.60
2022-07-26T22:06:04.847Z,5.47
2022-07-26T22:08:32.482Z,7.18
2022-07-26T22:10:59.872Z,4.60
2022-07-26T22:13:27.338Z,7.78
2022-07-26T22:15:54.684Z,5.90
2022-07-26T22:18:21.814Z,5.82
2022-07-26T22:20:50.012Z,5.20
2022-07-26T22:23:18.790Z,7.95
2022-07-26T22:25:46.520Z,13.70
2022-07-26T22:28:17.782Z,5.18
2022-07-26T22:30:46.353Z,4.40
2022-07-26T22:33:13.595Z,8.93
2022-07-26T22:35:40.931Z,6.07
2022-07-26T22:38:10.286Z,5.68
2022-07-26T22:40:39.647Z,3.80
2022-07-26T22:43:07.623Z,5.22
2022-07-26T22:45:35.323Z,5.85
2022-07-26T22:48:03.497Z,6.38
2022-07-26T22:50:31.918Z,4.07
2022-07-26T22:53:01.077Z,5.68
2022-07-26T22:55:29.110Z,4.05
2022-07-26T22:57:56.465Z,7.65
2022-07-26T23:00:23.717Z,4.15
2022-07-26T23:02:51.404Z,6.35
2022-07-26T23:05:19.448Z,7.00
2022-07-26T23:07:48.098Z,6.05
2022-07-26T23:10:16.553Z,6.50
2022-07-26T23:12:44.068Z,5.20
2022-07-26T23:15:12.407Z,6.13
2022-07-26T23:17:39.780Z,5.30
2022-07-26T23:20:08.657Z,4.25
2022-07-26T23:22:35.818Z,5.72
2022-07-26T23:25:03.197Z,6.97
2022-07-26T23:27:30.359Z,5.38
2022-07-26T23:29:57.728Z,6.30
2022-07-26T23:32:25.086Z,5.97
2022-07-26T23:34:52.368Z,9.00
2022-07-26T23:37:19.660Z,5.15
2022-07-26T23:39:46.994Z,4.20
2022-07-26T23:42:14.193Z,8.02
2022-07-26T23:44:41.444Z,4.68
2022-07-26T23:47:08.802Z,9.52
2022-07-26T23:49:36.177Z,7.85
2022-07-26T23:52:03.585Z,5.00
2022-07-26T23:54:30.979Z,5.40
2022-07-26T23:56:58.098Z,7.00
2022-07-26T23:59:25.318Z,7.57
